sensor_id;sensor_type;location;lat;lon;timestamp;pressure;altitude;pressure_sealevel;temperature;humidity
70103;BME280;57470;50.034;15.256;2023-08-17T00:00:49;99580.00;;;22.23;87.83
70103;BME280;57470;50.034;15.256;2023-08-17T00:03:14;99584.03;;;22.35;87.71
70103;BME280;57470;50.034;15.256;2023-08-17T00:05:40;99571.56;;;22.18;87.93
70103;BME280;57470;50.034;15.256;2023-08-17T00:08:05;99580.56;;;22.18;87.52
70103;BME280;57470;50.034;15.256;2023-08-17T00:10:30;99574.72;;;21.98;88.25
70103;BME280;57470;50.034;15.256;2023-08-17T00:12:56;99574.53;;;21.84;89.22
70103;BME280;57470;50.034;15.256;2023-08-17T00:15:21;99555.59;;;21.92;88.92
70103;BME280;57470;50.034;15.256;2023-08-17T00:17:47;99558.09;;;21.93;89.10
70103;BME280;57470;50.034;15.256;2023-08-17T00:20:12;99558.41;;;22.06;88.36
70103;BME280;57470;50.034;15.256;2023-08-17T00:22:38;99547.63;;;21.90;88.30
70103;BME280;57470;50.034;15.256;2023-08-17T00:25:04;99543.41;;;21.88;88.93
70103;BME280;57470;50.034;15.256;2023-08-17T00:27:32;99543.22;;;21.89;88.33
70103;BME280;57470;50.034;15.256;2023-08-17T00:29:57;99540.16;;;22.00;88.11
70103;BME280;57470;50.034;15.256;2023-08-17T00:32:22;99540.34;;;21.99;87.71
70103;BME280;57470;50.034;15.256;2023-08-17T00:34:48;99541.81;;;22.10;86.80
70103;BME280;57470;50.034;15.256;2023-08-17T00:37:13;99535.56;;;21.93;87.94
70103;BME280;57470;50.034;15.256;2023-08-17T00:39:39;99537.94;;;21.96;87.78
70103;BME280;57470;50.034;15.256;2023-08-17T00:42:04;99534.25;;;21.89;88.95
70103;BME280;57470;50.034;15.256;2023-08-17T00:44:30;99529.56;;;21.83;88.51
70103;BME280;57470;50.034;15.256;2023-08-17T00:46:55;99532.09;;;21.76;88.94
70103;BME280;57470;50.034;15.256;2023-08-17T00:49:22;99530.38;;;21.83;88.40
70103;BME280;57470;50.034;15.256;2023-08-17T00:51:48;99535.44;;;21.86;88.43
70103;BME280;57470;50.034;15.256;2023-08-17T00:54:15;99539.84;;;21.87;88.08
70103;BME280;57470;50.034;15.256;2023-08-17T00:56:45;99539.34;;;21.92;88.17
70103;BME280;57470;50.034;15.256;2023-08-17T00:59:10;99537.94;;;22.04;87.95
70103;BME280;57470;50.034;15.256;2023-08-17T01:01:36;99538.66;;;21.98;87.75
70103;BME280;57470;50.034;15.256;2023-08-17T01:04:01;99546.06;;;21.96;88.06
70103;BME280;57470;50.034;15.256;2023-08-17T01:06:26;99563.19;;;21.88;88.75
70103;BME280;57470;50.034;15.256;2023-08-17T01:08:52;99563.28;;;21.64;90.28
70103;BME280;57470;50.034;15.256;2023-08-17T01:11:34;99552.59;;;21.70;89.97
70103;BME280;57470;50.034;15.256;2023-08-17T01:16:47;99535.81;;;21.75;91.61
70103;BME280;57470;50.034;15.256;2023-08-17T01:19:26;99555.47;;;21.69;91.96
70103;BME280;57470;50.034;15.256;2023-08-17T01:22:00;99542.38;;;21.89;91.29
70103;BME280;57470;50.034;15.256;2023-08-17T01:24:28;99543.16;;;21.58;91.61
70103;BME280;57470;50.034;15.256;2023-08-17T01:26:53;99556.72;;;21.42;94.19
70103;BME280;57470;50.034;15.256;2023-08-17T01:29:19;99560.59;;;21.56;93.14
70103;BME280;57470;50.034;15.256;2023-08-17T01:31:58;99567.38;;;21.52;94.01
70103;BME280;57470;50.034;15.256;2023-08-17T01:34:26;99563.72;;;21.84;92.40
70103;BME280;57470;50.034;15.256;2023-08-17T01:37:00;99581.34;;;21.80;90.73
70103;BME280;57470;50.034;15.256;2023-08-17T01:39:35;99568.81;;;21.79;89.56
70103;BME280;57470;50.034;15.256;2023-08-17T01:42:02;99580.13;;;21.19;93.60
70103;BME280;57470;50.034;15.256;2023-08-17T01:44:29;99569.97;;;21.29;92.72
70103;BME280;57470;50.034;15.256;2023-08-17T01:46:54;99573.63;;;20.63;95.39
70103;BME280;57470;50.034;15.256;2023-08-17T01:49:20;99563.00;;;21.34;92.51
70103;BME280;57470;50.034;15.256;2023-08-17T01:51:45;99559.41;;;21.58;91.67
70103;BME280;57470;50.034;15.256;2023-08-17T01:54:11;99554.69;;;21.52;91.26
70103;BME280;57470;50.034;15.256;2023-08-17T01:56:36;99556.00;;;21.64;91.07
70103;BME280;57470;50.034;15.256;2023-08-17T01:59:01;99552.25;;;21.65;90.30
70103;BME280;57470;50.034;15.256;2023-08-17T02:01:27;99545.00;;;21.58;90.65
70103;BME280;57470;50.034;15.256;2023-08-17T02:03:53;99544.34;;;21.64;90.66
70103;BME280;57470;50.034;15.256;2023-08-17T02:06:18;99550.09;;;21.61;90.24
70103;BME280;57470;50.034;15.256;2023-08-17T02:08:44;99555.00;;;21.57;90.73
70103;BME280;57470;50.034;15.256;2023-08-17T02:11:09;99552.66;;;21.54;90.47
70103;BME280;57470;50.034;15.256;2023-08-17T02:13:36;99560.59;;;21.64;90.13
70103;BME280;57470;50.034;15.256;2023-08-17T02:16:06;99550.97;;;21.53;90.54
70103;BME280;57470;50.034;15.256;2023-08-17T02:18:32;99552.28;;;21.57;89.99
70103;BME280;57470;50.034;15.256;2023-08-17T02:21:00;99552.13;;;21.59;89.60
70103;BME280;57470;50.034;15.256;2023-08-17T02:23:26;99547.91;;;21.48;90.17
70103;BME280;57470;50.034;15.256;2023-08-17T02:25:54;99537.09;;;21.48;90.20
70103;BME280;57470;50.034;15.256;2023-08-17T02:28:21;99540.69;;;21.32;90.93
70103;BME280;57470;50.034;15.256;2023-08-17T02:30:48;99538.63;;;21.43;90.00
70103;BME280;57470;50.034;15.256;2023-08-17T02:33:14;99532.53;;;21.41;89.92
70103;BME280;57470;50.034;15.256;2023-08-17T02:35:42;99538.16;;;21.31;89.67
70103;BME280;57470;50.034;15.256;2023-08-17T02:38:11;99528.00;;;21.33;90.12
70103;BME280;57470;50.034;15.256;2023-08-17T02:40:38;99532.56;;;21.32;90.04
70103;BME280;57470;50.034;15.256;2023-08-17T02:43:04;99530.38;;;21.28;90.26
70103;BME280;57470;50.034;15.256;2023-08-17T02:45:33;99532.06;;;21.05;90.30
70103;BME280;57470;50.034;15.256;2023-08-17T02:48:00;99530.41;;;21.20;90.17
70103;BME280;57470;50.034;15.256;2023-08-17T02:50:27;99531.25;;;21.20;90.16
70103;BME280;57470;50.034;15.256;2023-08-17T02:52:54;99531.72;;;21.16;90.03
70103;BME280;57470;50.034;15.256;2023-08-17T02:55:21;99529.00;;;21.16;89.93
70103;BME280;57470;50.034;15.256;2023-08-17T02:57:48;99536.47;;;21.22;89.38
70103;BME280;57470;50.034;15.256;2023-08-17T03:00:15;99546.94;;;21.09;90.47
70103;BME280;57470;50.034;15.256;2023-08-17T03:02:42;99542.38;;;20.85;91.06
70103;BME280;57470;50.034;15.256;2023-08-17T03:05:08;99545.59;;;20.64;91.61
70103;BME280;57470;50.034;15.256;2023-08-17T03:07:35;99534.44;;;20.91;90.84
70103;BME280;57470;50.034;15.256;2023-08-17T03:10:03;99536.31;;;20.99;90.89
70103;BME280;57470;50.034;15.256;2023-08-17T03:12:29;99531.75;;;20.91;90.63
70103;BME280;57470;50.034;15.256;2023-08-17T03:14:54;99537.66;;;20.63;91.97
70103;BME280;57470;50.034;15.256;2023-08-17T03:17:19;99538.50;;;20.71;91.31
70103;BME280;57470;50.034;15.256;2023-08-17T03:19:45;99541.19;;;20.95;90.41
70103;BME280;57470;50.034;15.256;2023-08-17T03:22:10;99541.72;;;20.99;90.01
70103;BME280;57470;50.034;15.256;2023-08-17T03:24:35;99543.22;;;20.77;90.52
70103;BME280;57470;50.034;15.256;2023-08-17T03:27:01;99541.88;;;20.97;90.11
70103;BME280;57470;50.034;15.256;2023-08-17T03:29:26;99550.84;;;20.82;90.66
70103;BME280;57470;50.034;15.256;2023-08-17T03:31:52;99551.84;;;20.97;89.85
70103;BME280;57470;50.034;15.256;2023-08-17T03:34:17;99549.47;;;20.78;90.14
70103;BME280;57470;50.034;15.256;2023-08-17T03:36:43;99538.66;;;20.94;90.09
70103;BME280;57470;50.034;15.256;2023-08-17T03:39:08;99543.03;;;21.03;89.96
70103;BME280;57470;50.034;15.256;2023-08-17T03:41:33;99546.59;;;21.12;90.15
70103;BME280;57470;50.034;15.256;2023-08-17T03:44:02;99554.06;;;21.02;90.67
70103;BME280;57470;50.034;15.256;2023-08-17T03:46:27;99562.00;;;21.11;90.48
70103;BME280;57470;50.034;15.256;2023-08-17T03:48:53;99552.69;;;20.97;90.68
70103;BME280;57470;50.034;15.256;2023-08-17T03:51:18;99551.69;;;21.07;90.49
70103;BME280;57470;50.034;15.256;2023-08-17T03:53:44;99561.31;;;21.09;90.99
70103;BME280;57470;50.034;15.256;2023-08-17T03:56:09;99564.34;;;20.82;92.24
70103;BME280;57470;50.034;15.256;2023-08-17T03:58:34;99570.25;;;20.69;92.74
70103;BME280;57470;50.034;15.256;2023-08-17T04:01:00;99570.41;;;20.68;92.70
70103;BME280;57470;50.034;15.256;2023-08-17T04:03:26;99581.91;;;20.86;92.03
70103;BME280;57470;50.034;15.256;2023-08-17T04:05:52;99583.75;;;20.69;93.07
70103;BME280;57470;50.034;15.256;2023-08-17T04:08:17;99581.56;;;20.65;92.24
70103;BME280;57470;50.034;15.256;2023-08-17T04:10:42;99588.00;;;20.64;92.71
70103;BME280;57470;50.034;15.256;2023-08-17T04:13:08;99595.94;;;20.73;92.28
70103;BME280;57470;50.034;15.256;2023-08-17T04:15:33;99605.44;;;20.93;91.67
70103;BME280;57470;50.034;15.256;2023-08-17T04:17:59;99610.81;;;20.85;91.67
70103;BME280;57470;50.034;15.256;2023-08-17T04:20:24;99608.44;;;20.74;92.43
70103;BME280;57470;50.034;15.256;2023-08-17T04:22:51;99614.19;;;20.87;92.39
70103;BME280;57470;50.034;15.256;2023-08-17T04:25:17;99622.16;;;20.97;92.01
70103;BME280;57470;50.034;15.256;2023-08-17T04:27:42;99619.28;;;21.07;91.39
70103;BME280;57470;50.034;15.256;2023-08-17T04:30:08;99620.66;;;21.11;91.18
70103;BME280;57470;50.034;15.256;2023-08-17T04:32:34;99619.81;;;21.02;92.20
70103;BME280;57470;50.034;15.256;2023-08-17T04:34:59;99611.88;;;21.25;91.55
70103;BME280;57470;50.034;15.256;2023-08-17T04:37:25;99623.88;;;21.39;90.52
70103;BME280;57470;50.034;15.256;2023-08-17T04:39:50;99625.03;;;21.12;91.38
70103;BME280;57470;50.034;15.256;2023-08-17T04:42:16;99619.28;;;20.98;91.09
70103;BME280;57470;50.034;15.256;2023-08-17T04:44:41;99614.41;;;21.10;91.29
70103;BME280;57470;50.034;15.256;2023-08-17T04:47:07;99623.00;;;21.14;91.26
70103;BME280;57470;50.034;15.256;2023-08-17T04:49:33;99624.69;;;21.07;92.42
70103;BME280;57470;50.034;15.256;2023-08-17T04:51:58;99618.06;;;20.77;93.16
70103;BME280;57470;50.034;15.256;2023-08-17T04:54:24;99629.25;;;20.90;92.89
70103;BME280;57470;50.034;15.256;2023-08-17T04:56:49;99625.84;;;20.72;93.08
70103;BME280;57470;50.034;15.256;2023-08-17T04:59:14;99621.59;;;20.61;93.92
70103;BME280;57470;50.034;15.256;2023-08-17T05:01:40;99617.53;;;20.57;93.93
70103;BME280;57470;50.034;15.256;2023-08-17T05:04:05;99631.78;;;20.91;93.39
70103;BME280;57470;50.034;15.256;2023-08-17T05:06:31;99626.22;;;20.93;91.82
70103;BME280;57470;50.034;15.256;2023-08-17T05:08:57;99642.00;;;21.38;90.61
70103;BME280;57470;50.034;15.256;2023-08-17T05:11:22;99637.25;;;21.24;90.27
70103;BME280;57470;50.034;15.256;2023-08-17T05:13:48;99642.78;;;20.98;92.31
70103;BME280;57470;50.034;15.256;2023-08-17T05:16:14;99650.09;;;21.22;91.30
70103;BME280;57470;50.034;15.256;2023-08-17T05:18:39;99640.97;;;21.23;90.88
70103;BME280;57470;50.034;15.256;2023-08-17T05:21:04;99643.84;;;21.38;90.69
70103;BME280;57470;50.034;15.256;2023-08-17T05:23:30;99643.50;;;21.32;90.85
70103;BME280;57470;50.034;15.256;2023-08-17T05:25:55;99639.78;;;21.25;91.66
70103;BME280;57470;50.034;15.256;2023-08-17T05:28:21;99647.41;;;21.38;91.07
70103;BME280;57470;50.034;15.256;2023-08-17T05:30:46;99644.16;;;21.51;89.95
70103;BME280;57470;50.034;15.256;2023-08-17T05:33:12;99651.78;;;21.31;92.20
70103;BME280;57470;50.034;15.256;2023-08-17T05:35:37;99651.81;;;21.47;90.75
70103;BME280;57470;50.034;15.256;2023-08-17T05:38:03;99645.34;;;21.48;91.16
70103;BME280;57470;50.034;15.256;2023-08-17T05:40:30;99650.94;;;21.55;91.07
70103;BME280;57470;50.034;15.256;2023-08-17T05:42:55;99642.63;;;21.48;90.69
70103;BME280;57470;50.034;15.256;2023-08-17T05:45:21;99644.50;;;21.64;90.37
70103;BME280;57470;50.034;15.256;2023-08-17T05:47:46;99648.72;;;21.58;90.58
70103;BME280;57470;50.034;15.256;2023-08-17T05:50:12;99644.69;;;21.54;91.29
70103;BME280;57470;50.034;15.256;2023-08-17T05:52:37;99660.19;;;21.85;90.17
70103;BME280;57470;50.034;15.256;2023-08-17T05:55:02;99654.59;;;22.02;88.31
70103;BME280;57470;50.034;15.256;2023-08-17T05:57:28;99665.75;;;22.07;88.15
70103;BME280;57470;50.034;15.256;2023-08-17T05:59:53;99666.63;;;22.00;88.98
70103;BME280;57470;50.034;15.256;2023-08-17T06:02:19;99657.13;;;22.04;89.35
70103;BME280;57470;50.034;15.256;2023-08-17T06:04:44;99658.09;;;22.11;88.62
70103;BME280;57470;50.034;15.256;2023-08-17T06:07:09;99659.31;;;22.08;88.61
70103;BME280;57470;50.034;15.256;2023-08-17T06:09:35;99669.53;;;22.37;87.42
70103;BME280;57470;50.034;15.256;2023-08-17T06:12:00;99669.19;;;22.40;87.70
70103;BME280;57470;50.034;15.256;2023-08-17T06:14:26;99654.56;;;22.50;87.02
70103;BME280;57470;50.034;15.256;2023-08-17T06:16:51;99661.94;;;22.33;86.73
70103;BME280;57470;50.034;15.256;2023-08-17T06:19:16;99661.97;;;22.25;87.46
70103;BME280;57470;50.034;15.256;2023-08-17T06:21:42;99654.78;;;22.40;87.50
70103;BME280;57470;50.034;15.256;2023-08-17T06:24:07;99653.34;;;22.60;87.07
70103;BME280;57470;50.034;15.256;2023-08-17T06:26:32;99661.31;;;22.62;86.81
70103;BME280;57470;50.034;15.256;2023-08-17T06:28:58;99654.97;;;22.77;86.46
70103;BME280;57470;50.034;15.256;2023-08-17T06:31:23;99650.53;;;23.07;85.53
70103;BME280;57470;50.034;15.256;2023-08-17T06:33:56;99636.13;;;23.07;85.01
70103;BME280;57470;50.034;15.256;2023-08-17T06:36:21;99639.47;;;23.09;84.52
70103;BME280;57470;50.034;15.256;2023-08-17T06:38:46;99646.03;;;23.37;84.04
70103;BME280;57470;50.034;15.256;2023-08-17T06:41:12;99637.59;;;23.09;85.18
70103;BME280;57470;50.034;15.256;2023-08-17T06:43:38;99648.50;;;23.47;84.87
70103;BME280;57470;50.034;15.256;2023-08-17T06:46:03;99652.97;;;23.40;84.28
70103;BME280;57470;50.034;15.256;2023-08-17T06:48:29;99646.53;;;22.95;85.25
70103;BME280;57470;50.034;15.256;2023-08-17T06:50:54;99653.53;;;23.58;83.57
70103;BME280;57470;50.034;15.256;2023-08-17T06:53:19;99651.75;;;23.65;83.82
70103;BME280;57470;50.034;15.256;2023-08-17T06:55:45;99644.19;;;23.75;84.12
70103;BME280;57470;50.034;15.256;2023-08-17T06:58:10;99655.34;;;23.80;82.99
70103;BME280;57470;50.034;15.256;2023-08-17T07:00:36;99655.09;;;24.05;82.05
70103;BME280;57470;50.034;15.256;2023-08-17T07:03:04;99648.19;;;23.65;82.67
70103;BME280;57470;50.034;15.256;2023-08-17T07:05:29;99649.94;;;24.10;82.06
70103;BME280;57470;50.034;15.256;2023-08-17T07:07:55;99634.75;;;24.15;81.67
70103;BME280;57470;50.034;15.256;2023-08-17T07:10:20;99629.16;;;24.32;81.39
70103;BME280;57470;50.034;15.256;2023-08-17T07:12:46;99631.84;;;24.46;80.76
70103;BME280;57470;50.034;15.256;2023-08-17T07:15:12;99636.78;;;24.57;80.28
70103;BME280;57470;50.034;15.256;2023-08-17T07:17:37;99626.03;;;24.71;82.04
70103;BME280;57470;50.034;15.256;2023-08-17T07:20:04;99630.16;;;24.81;80.40
70103;BME280;57470;50.034;15.256;2023-08-17T07:22:32;99637.66;;;24.79;80.19
70103;BME280;57470;50.034;15.256;2023-08-17T07:24:58;99643.34;;;24.99;79.88
70103;BME280;57470;50.034;15.256;2023-08-17T07:27:23;99644.56;;;24.96;80.02
70103;BME280;57470;50.034;15.256;2023-08-17T07:29:48;99642.59;;;25.05;80.75
70103;BME280;57470;50.034;15.256;2023-08-17T07:32:14;99646.03;;;25.14;79.70
70103;BME280;57470;50.034;15.256;2023-08-17T07:34:39;99641.06;;;25.45;80.94
70103;BME280;57470;50.034;15.256;2023-08-17T07:37:05;99644.13;;;25.35;79.48
70103;BME280;57470;50.034;15.256;2023-08-17T07:39:31;99637.06;;;25.41;79.23
70103;BME280;57470;50.034;15.256;2023-08-17T07:41:56;99636.75;;;25.29;79.91
70103;BME280;57470;50.034;15.256;2023-08-17T07:44:22;99645.09;;;25.28;81.88
70103;BME280;57470;50.034;15.256;2023-08-17T07:46:47;99648.06;;;25.54;79.87
70103;BME280;57470;50.034;15.256;2023-08-17T07:49:13;99638.00;;;25.55;80.91
70103;BME280;57470;50.034;15.256;2023-08-17T07:51:38;99641.00;;;25.88;80.00
70103;BME280;57470;50.034;15.256;2023-08-17T07:54:04;99639.63;;;26.05;80.24
70103;BME280;57470;50.034;15.256;2023-08-17T07:56:29;99640.97;;;26.15;78.63
70103;BME280;57470;50.034;15.256;2023-08-17T07:58:54;99636.03;;;26.32;77.43
70103;BME280;57470;50.034;15.256;2023-08-17T08:01:20;99632.81;;;26.57;77.10
70103;BME280;57470;50.034;15.256;2023-08-17T08:03:46;99626.09;;;26.18;78.12
70103;BME280;57470;50.034;15.256;2023-08-17T08:06:11;99629.66;;;26.53;77.10
70103;BME280;57470;50.034;15.256;2023-08-17T08:08:38;99624.84;;;26.68;76.21
70103;BME280;57470;50.034;15.256;2023-08-17T08:11:03;99633.25;;;26.67;77.77
70103;BME280;57470;50.034;15.256;2023-08-17T08:13:30;99630.47;;;27.01;74.69
70103;BME280;57470;50.034;15.256;2023-08-17T08:15:55;99631.94;;;27.30;74.62
70103;BME280;57470;50.034;15.256;2023-08-17T08:18:21;99627.72;;;27.21;74.08
70103;BME280;57470;50.034;15.256;2023-08-17T08:20:46;99626.03;;;27.13;74.62
70103;BME280;57470;50.034;15.256;2023-08-17T08:23:11;99621.25;;;27.29;75.30
70103;BME280;57470;50.034;15.256;2023-08-17T08:25:37;99621.88;;;27.37;74.54
70103;BME280;57470;50.034;15.256;2023-08-17T08:28:02;99628.41;;;27.36;73.62
70103;BME280;57470;50.034;15.256;2023-08-17T08:30:28;99633.25;;;27.60;73.31
70103;BME280;57470;50.034;15.256;2023-08-17T08:32:53;99623.31;;;27.99;71.94
70103;BME280;57470;50.034;15.256;2023-08-17T08:35:20;99620.19;;;27.89;73.49
70103;BME280;57470;50.034;15.256;2023-08-17T08:37:47;99630.06;;;27.90;73.16
70103;BME280;57470;50.034;15.256;2023-08-17T08:40:14;99615.91;;;28.19;72.33
70103;BME280;57470;50.034;15.256;2023-08-17T08:42:40;99612.03;;;28.47;71.77
70103;BME280;57470;50.034;15.256;2023-08-17T08:45:06;99602.63;;;28.29;71.73
70103;BME280;57470;50.034;15.256;2023-08-17T08:47:34;99599.78;;;28.56;72.04
70103;BME280;57470;50.034;15.256;2023-08-17T08:50:01;99604.34;;;28.68;70.52
70103;BME280;57470;50.034;15.256;2023-08-17T08:52:35;99602.25;;;28.64;69.65
70103;BME280;57470;50.034;15.256;2023-08-17T08:55:11;99606.31;;;28.55;69.58
70103;BME280;57470;50.034;15.256;2023-08-17T08:57:38;99602.75;;;28.48;71.16
70103;BME280;57470;50.034;15.256;2023-08-17T09:00:05;99607.50;;;28.79;70.70
70103;BME280;57470;50.034;15.256;2023-08-17T09:02:31;99600.09;;;28.72;70.40
70103;BME280;57470;50.034;15.256;2023-08-17T09:04:59;99611.66;;;28.81;70.32
70103;BME280;57470;50.034;15.256;2023-08-17T09:07:25;99610.19;;;28.85;69.23
70103;BME280;57470;50.034;15.256;2023-08-17T09:09:52;99600.59;;;29.01;67.88
70103;BME280;57470;50.034;15.256;2023-08-17T09:12:17;99598.44;;;29.41;67.51
70103;BME280;57470;50.034;15.256;2023-08-17T09:14:42;99598.22;;;29.42;66.90
70103;BME280;57470;50.034;15.256;2023-08-17T09:17:08;99591.50;;;29.38;66.54
70103;BME280;57470;50.034;15.256;2023-08-17T09:19:33;99593.16;;;29.64;64.65
70103;BME280;57470;50.034;15.256;2023-08-17T09:22:00;99598.28;;;29.29;66.09
70103;BME280;57470;50.034;15.256;2023-08-17T09:24:36;99586.34;;;29.48;66.56
70103;BME280;57470;50.034;15.256;2023-08-17T09:27:03;99597.06;;;29.75;65.79
70103;BME280;57470;50.034;15.256;2023-08-17T09:29:29;99590.88;;;29.61;66.51
70103;BME280;57470;50.034;15.256;2023-08-17T09:32:06;99593.34;;;29.13;67.07
70103;BME280;57470;50.034;15.256;2023-08-17T09:34:32;99589.22;;;29.04;66.31
70103;BME280;57470;50.034;15.256;2023-08-17T09:37:05;99585.63;;;29.60;65.11
70103;BME280;57470;50.034;15.256;2023-08-17T09:39:31;99588.63;;;29.76;65.20
70103;BME280;57470;50.034;15.256;2023-08-17T09:41:56;99590.50;;;30.19;64.50
70103;BME280;57470;50.034;15.256;2023-08-17T09:44:22;99588.41;;;29.53;64.68
70103;BME280;57470;50.034;15.256;2023-08-17T09:46:48;99577.84;;;30.00;62.86
70103;BME280;57470;50.034;15.256;2023-08-17T09:49:13;99583.44;;;29.87;64.30
70103;BME280;57470;50.034;15.256;2023-08-17T09:51:43;99576.09;;;29.62;63.20
70103;BME280;57470;50.034;15.256;2023-08-17T09:54:20;99579.53;;;30.01;64.06
70103;BME280;57470;50.034;15.256;2023-08-17T09:56:46;99572.00;;;30.44;63.04
70103;BME280;57470;50.034;15.256;2023-08-17T09:59:12;99574.03;;;30.19;61.67
70103;BME280;57470;50.034;15.256;2023-08-17T10:01:38;99573.34;;;30.24;64.44
70103;BME280;57470;50.034;15.256;2023-08-17T10:04:04;99575.06;;;30.36;62.52
70103;BME280;57470;50.034;15.256;2023-08-17T10:06:31;99568.03;;;30.77;61.02
70103;BME280;57470;50.034;15.256;2023-08-17T10:08:58;99565.41;;;30.52;60.68
70103;BME280;57470;50.034;15.256;2023-08-17T10:11:24;99566.34;;;30.76;58.80
70103;BME280;57470;50.034;15.256;2023-08-17T10:14:13;99568.47;;;30.74;60.30
70103;BME280;57470;50.034;15.256;2023-08-17T10:16:45;99560.91;;;30.99;60.58
70103;BME280;57470;50.034;15.256;2023-08-17T10:19:33;99566.34;;;30.87;59.33
70103;BME280;57470;50.034;15.256;2023-08-17T10:22:08;99559.81;;;31.42;60.79
70103;BME280;57470;50.034;15.256;2023-08-17T10:24:37;99562.31;;;31.20;60.20
70103;BME280;57470;50.034;15.256;2023-08-17T10:27:05;99561.63;;;30.94;60.26
70103;BME280;57470;50.034;15.256;2023-08-17T10:29:31;99556.22;;;31.53;60.46
70103;BME280;57470;50.034;15.256;2023-08-17T10:31:59;99556.13;;;31.48;61.39
70103;BME280;57470;50.034;15.256;2023-08-17T10:34:26;99552.28;;;31.49;59.28
70103;BME280;57470;50.034;15.256;2023-08-17T10:36:53;99561.22;;;31.21;60.05
70103;BME280;57470;50.034;15.256;2023-08-17T10:39:25;99551.66;;;31.23;60.47
70103;BME280;57470;50.034;15.256;2023-08-17T10:41:52;99554.81;;;31.62;57.69
70103;BME280;57470;50.034;15.256;2023-08-17T10:44:40;99554.19;;;31.95;57.41
70103;BME280;57470;50.034;15.256;2023-08-17T10:47:32;99555.75;;;31.56;59.62
70103;BME280;57470;50.034;15.256;2023-08-17T10:50:05;99551.25;;;31.73;57.50
70103;BME280;57470;50.034;15.256;2023-08-17T10:52:32;99551.31;;;31.43;57.47
70103;BME280;57470;50.034;15.256;2023-08-17T10:55:04;99554.09;;;31.55;59.29
70103;BME280;57470;50.034;15.256;2023-08-17T10:57:37;99546.91;;;31.77;57.81
70103;BME280;57470;50.034;15.256;2023-08-17T11:00:23;99551.56;;;31.53;58.96
70103;BME280;57470;50.034;15.256;2023-08-17T11:02:52;99540.44;;;31.13;59.15
70103;BME280;57470;50.034;15.256;2023-08-17T11:05:44;99544.28;;;31.36;57.96
70103;BME280;57470;50.034;15.256;2023-08-17T11:08:29;99538.22;;;30.62;58.62
70103;BME280;57470;50.034;15.256;2023-08-17T11:11:10;99542.97;;;31.38;59.12
70103;BME280;57470;50.034;15.256;2023-08-17T11:13:40;99541.50;;;31.12;56.53
70103;BME280;57470;50.034;15.256;2023-08-17T11:16:07;99540.22;;;30.85;58.21
70103;BME280;57470;50.034;15.256;2023-08-17T11:18:34;99537.25;;;31.75;57.95
70103;BME280;57470;50.034;15.256;2023-08-17T11:21:01;99532.81;;;31.39;56.34
70103;BME280;57470;50.034;15.256;2023-08-17T11:23:32;99533.63;;;31.86;57.17
70103;BME280;57470;50.034;15.256;2023-08-17T11:25:58;99531.59;;;31.93;55.46
70103;BME280;57470;50.034;15.256;2023-08-17T11:28:24;99532.69;;;32.32;55.27
70103;BME280;57470;50.034;15.256;2023-08-17T11:31:00;99530.78;;;31.57;57.33
70103;BME280;57470;50.034;15.256;2023-08-17T11:33:26;99532.34;;;31.65;56.26
70103;BME280;57470;50.034;15.256;2023-08-17T11:35:56;99526.63;;;32.30;54.09
70103;BME280;57470;50.034;15.256;2023-08-17T11:38:22;99520.13;;;32.64;53.90
70103;BME280;57470;50.034;15.256;2023-08-17T11:40:48;99527.91;;;32.39;54.76
70103;BME280;57470;50.034;15.256;2023-08-17T11:43:14;99525.66;;;32.13;56.10
70103;BME280;57470;50.034;15.256;2023-08-17T11:45:40;99518.16;;;32.48;55.81
70103;BME280;57470;50.034;15.256;2023-08-17T11:48:05;99526.38;;;33.05;53.80
70103;BME280;57470;50.034;15.256;2023-08-17T11:50:31;99529.38;;;32.87;54.84
70103;BME280;57470;50.034;15.256;2023-08-17T11:52:59;99520.03;;;32.88;53.18
70103;BME280;57470;50.034;15.256;2023-08-17T11:55:25;99512.69;;;33.43;53.48
70103;BME280;57470;50.034;15.256;2023-08-17T11:57:50;99515.78;;;32.68;53.10
70103;BME280;57470;50.034;15.256;2023-08-17T12:00:20;99512.28;;;33.18;53.56
70103;BME280;57470;50.034;15.256;2023-08-17T12:02:47;99515.19;;;32.95;53.86
70103;BME280;57470;50.034;15.256;2023-08-17T12:05:13;99511.97;;;32.69;52.92
70103;BME280;57470;50.034;15.256;2023-08-17T12:07:45;99506.66;;;33.13;51.54
70103;BME280;57470;50.034;15.256;2023-08-17T12:10:10;99492.19;;;32.44;51.90
70103;BME280;57470;50.034;15.256;2023-08-17T12:12:37;99500.19;;;32.29;52.38
70103;BME280;57470;50.034;15.256;2023-08-17T12:15:04;99509.91;;;32.93;51.77
70103;BME280;57470;50.034;15.256;2023-08-17T12:17:30;99503.81;;;32.74;51.66
70103;BME280;57470;50.034;15.256;2023-08-17T12:19:55;99497.56;;;32.67;51.95
70103;BME280;57470;50.034;15.256;2023-08-17T12:22:23;99502.75;;;32.64;51.74
70103;BME280;57470;50.034;15.256;2023-08-17T12:24:49;99506.06;;;33.11;50.67
70103;BME280;57470;50.034;15.256;2023-08-17T12:27:15;99498.97;;;33.15;50.29
70103;BME280;57470;50.034;15.256;2023-08-17T12:29:50;99492.41;;;31.74;54.86
70103;BME280;57470;50.034;15.256;2023-08-17T12:32:17;99486.97;;;32.31;54.80
70103;BME280;57470;50.034;15.256;2023-08-17T12:34:42;99481.97;;;32.28;55.54
70103;BME280;57470;50.034;15.256;2023-08-17T12:37:12;99473.56;;;32.34;54.90
70103;BME280;57470;50.034;15.256;2023-08-17T12:39:37;99471.28;;;32.03;53.94
70103;BME280;57470;50.034;15.256;2023-08-17T12:42:04;99476.47;;;32.56;52.92
70103;BME280;57470;50.034;15.256;2023-08-17T12:44:30;99476.28;;;32.91;50.43
70103;BME280;57470;50.034;15.256;2023-08-17T12:46:55;99467.53;;;33.28;51.33
70103;BME280;57470;50.034;15.256;2023-08-17T12:49:22;99472.91;;;33.39;51.44
70103;BME280;57470;50.034;15.256;2023-08-17T12:51:48;99454.88;;;33.70;53.59